Time;durP1;ratioP1;P1;durP2;ratioP2;P2;SDS_P1;SDS_P2;PMS_P1;PMS_P2;Temp;Humidity;BMP_temperature;BMP_pressure;BME280_temperature;BME280_humidity;BME280_pressure;Samples;Min_cycle;Max_cycle;Signal;HPM_P1;HPM_P2
2023/01/21 00:02:49;;;;;;;35.27;11.23;;;;;;;-4.56;100.00;101968.34;5977617;29;20409;-70
2023/01/21 00:05:44;;;;;;;30.43;9.87;;;;;;;-5.00;100.00;101982.66;5980271;28;20035;-68
2023/01/21 00:08:39;;;;;;;36.73;10.90;;;;;;;-4.48;100.00;101993.25;5982342;29;20031;-71
2023/01/21 00:11:35;;;;;;;28.10;10.43;;;;;;;-4.19;100.00;101977.34;5982952;29;20039;-68
2023/01/21 00:14:30;;;;;;;27.10;9.50;;;;;;;-4.55;100.00;101978.69;5982142;29;20435;-71
2023/01/21 00:17:26;;;;;;;28.40;10.57;;;;;;;-5.08;100.00;101994.81;5982377;29;20073;-68
2023/01/21 00:20:21;;;;;;;28.60;11.07;;;;;;;-5.33;100.00;102003.72;5982330;29;20529;-70
2023/01/21 00:23:17;;;;;;;24.97;9.07;;;;;;;-5.56;100.00;101998.75;5981751;29;20039;-68
2023/01/21 00:26:12;;;;;;;29.13;10.07;;;;;;;-5.70;100.00;101989.38;5981608;29;20095;-68
2023/01/21 00:29:10;;;;;;;29.90;9.68;;;;;;;-5.71;100.00;102011.78;5982230;29;20097;-69
2023/01/21 00:32:05;;;;;;;28.13;9.77;;;;;;;-5.86;100.00;102017.09;5981562;29;20035;-69
2023/01/21 00:35:00;;;;;;;26.97;9.43;;;;;;;-5.87;100.00;102019.69;5982350;29;20372;-70
2023/01/21 00:37:56;;;;;;;30.73;10.70;;;;;;;-5.92;100.00;102013.72;5981315;29;20039;-68
2023/01/21 00:40:51;;;;;;;29.80;10.87;;;;;;;-5.98;100.00;102011.16;5981709;29;20052;-69
2023/01/21 00:43:46;;;;;;;29.23;10.70;;;;;;;-5.93;100.00;102028.34;5981487;29;20035;-69
2023/01/21 00:46:42;;;;;;;35.27;11.10;;;;;;;-5.18;100.00;102024.22;5981774;28;20551;-68
2023/01/21 00:49:37;;;;;;;29.40;9.77;;;;;;;-5.31;100.00;102029.53;5981976;29;20039;-67
2023/01/21 00:52:32;;;;;;;32.83;10.60;;;;;;;-5.60;100.00;102022.88;5980996;29;20031;-70
2023/01/21 00:55:27;;;;;;;37.70;11.67;;;;;;;-5.09;100.00;102033.63;5981472;29;20058;-70
2023/01/21 00:58:23;;;;;;;23.13;8.83;;;;;;;-5.19;100.00;102050.09;5981432;29;20427;-67
2023/01/21 01:01:19;;;;;;;28.47;9.97;;;;;;;-5.02;100.00;102041.31;5981619;29;20072;-69
2023/01/21 01:04:14;;;;;;;30.05;10.15;;;;;;;-4.50;100.00;102061.41;5980890;29;20129;-67
2023/01/21 01:07:10;;;;;;;28.03;11.73;;;;;;;-4.97;100.00;102070.53;5981350;29;20479;-69
2023/01/21 01:10:06;;;;;;;28.25;9.57;;;;;;;-5.21;100.00;102063.03;5981323;29;20471;-69
2023/01/21 01:13:01;;;;;;;31.00;10.23;;;;;;;-4.77;100.00;102066.91;5980740;29;20032;-68
2023/01/21 01:15:57;;;;;;;29.95;11.18;;;;;;;-4.97;100.00;102060.22;5981301;29;20099;-68
2023/01/21 01:18:52;;;;;;;26.02;9.77;;;;;;;-4.57;100.00;102054.63;5980662;28;20035;-69
2023/01/21 01:21:48;;;;;;;31.95;10.40;;;;;;;-4.15;100.00;102082.56;5980319;29;20039;-68
2023/01/21 01:24:43;;;;;;;27.70;10.57;;;;;;;-3.75;100.00;102083.72;5980910;29;20140;-69
2023/01/21 01:27:38;;;;;;;34.37;11.07;;;;;;;-4.01;100.00;102065.09;5980678;29;20383;-69
2023/01/21 01:30:34;;;;;;;33.97;12.67;;;;;;;-3.71;100.00;102090.59;5980851;29;20051;-69
2023/01/21 01:33:30;;;;;;;36.53;10.32;;;;;;;-3.61;100.00;102093.88;5980171;28;20035;-68
2023/01/21 01:36:25;;;;;;;33.47;11.10;;;;;;;-3.48;100.00;102089.38;5980054;29;20451;-69
2023/01/21 01:39:20;;;;;;;38.63;14.30;;;;;;;-3.28;100.00;102083.00;5980643;29;20475;-68
2023/01/21 01:42:16;;;;;;;38.00;11.90;;;;;;;-3.37;100.00;102090.06;5979414;29;20372;-69
2023/01/21 01:45:18;;;;;;;32.42;10.73;;;;;;;-3.13;100.00;102103.50;5980715;28;20403;-68
2023/01/21 01:48:17;;;;;;;30.17;10.93;;;;;;;-2.95;100.00;102112.69;5980422;29;20043;-68
2023/01/21 01:51:17;;;;;;;34.88;12.90;;;;;;;-2.87;100.00;102110.81;5962649;29;20035;-69
2023/01/21 01:54:18;;;;;;;28.77;9.82;;;;;;;-2.75;100.00;102107.16;5970488;29;20028;-68
2023/01/21 01:57:15;;;;;;;27.98;10.82;;;;;;;-2.69;100.00;102120.03;5980194;29;20034;-68
2023/01/21 02:00:11;;;;;;;28.65;11.07;;;;;;;-2.70;100.00;102116.56;5962752;29;20046;-70
2023/01/21 02:06:20;;;;;;;35.95;12.73;;;;;;;-2.55;100.00;102133.59;5965557;29;20031;-68
2023/01/21 02:09:15;;;;;;;25.53;10.40;;;;;;;-2.48;100.00;102130.88;5979895;29;20039;-68
2023/01/21 02:12:10;;;;;;;30.80;11.40;;;;;;;-2.34;100.00;102133.22;5979171;29;20105;-69
2023/01/21 02:15:06;;;;;;;25.50;10.35;;;;;;;-2.45;100.00;102119.56;5962265;29;20054;-70
2023/01/21 02:18:20;;;;;;;27.73;10.52;;;;;;;-2.26;100.00;102131.31;5967122;29;20526;-70
2023/01/21 02:21:36;;;;;;;33.50;9.93;;;;;;;-2.07;100.00;102152.59;5962682;29;20063;-69
2023/01/21 02:24:50;;;;;;;29.27;10.27;;;;;;;-1.98;100.00;102157.56;5961867;29;20050;-70
2023/01/21 02:27:56;;;;;;;33.45;9.23;;;;;;;-1.98;100.00;102147.19;5979230;28;20477;-69
2023/01/21 02:31:20;;;;;;;27.98;9.38;;;;;;;-1.84;100.00;102166.81;5978647;29;20148;-69
2023/01/21 02:34:41;;;;;;;34.38;12.45;;;;;;;-1.85;100.00;102170.28;5961345;29;20032;-69
2023/01/21 02:37:39;;;;;;;23.23;8.50;;;;;;;-1.79;100.00;102174.50;5962295;29;20062;-68
2023/01/21 02:40:44;;;;;;;27.40;10.23;;;;;;;-1.86;100.00;102159.94;5962222;29;20047;-71
2023/01/21 02:43:50;;;;;;;26.98;10.95;;;;;;;-1.70;100.00;102178.66;5979020;29;20118;-69
2023/01/21 02:46:49;;;;;;;33.35;9.63;;;;;;;-1.63;100.00;102180.25;5961670;29;20470;-71
2023/01/21 02:49:49;;;;;;;26.02;10.40;;;;;;;-1.58;100.00;102184.47;5962416;29;20039;-70
2023/01/21 02:52:44;;;;;;;26.67;9.07;;;;;;;-1.68;100.00;102177.75;5956616;29;20123;-71
2023/01/21 02:55:40;;;;;;;35.63;10.50;;;;;;;-1.63;100.00;102175.06;5978980;29;20051;-69
2023/01/21 02:58:40;;;;;;;19.10;7.53;;;;;;;-1.63;100.00;102180.25;5979043;29;20031;-68
2023/01/21 03:01:47;;;;;;;25.85;9.02;;;;;;;-1.49;100.00;102194.66;5961630;29;20043;-71
2023/01/21 03:04:52;;;;;;;27.02;8.00;;;;;;;-1.43;100.00;102180.66;5978709;29;20043;-71
2023/01/21 03:07:54;;;;;;;22.83;8.25;;;;;;;-1.38;100.00;102186.63;5961988;29;20082;-70
2023/01/21 03:10:57;;;;;;;28.08;8.88;;;;;;;-1.41;100.00;102184.94;5962177;29;20102;-70
2023/01/21 03:17:43;;;;;;;21.33;7.80;;;;;;;-1.52;100.00;102184.31;5964418;29;20482;-70
2023/01/21 03:20:52;;;;;;;20.10;7.53;;;;;;;-1.48;100.00;102195.53;5961421;29;20056;-70
2023/01/21 03:23:50;;;;;;;25.85;8.73;;;;;;;-1.51;100.00;102195.59;5960896;29;20035;-69
2023/01/21 03:26:48;;;;;;;26.08;8.75;;;;;;;-1.49;100.00;102194.66;5961962;29;20333;-71
2023/01/21 03:29:45;;;;;;;29.27;9.60;;;;;;;-1.46;100.00;102189.41;5978966;29;20066;-71
2023/01/21 03:32:42;;;;;;;25.42;7.68;;;;;;;-1.51;100.00;102193.84;5960979;29;20064;-71
2023/01/21 03:35:42;;;;;;;21.52;7.60;;;;;;;-1.60;100.00;102191.44;5961286;29;20513;-71
2023/01/21 03:38:41;;;;;;;20.75;7.88;;;;;;;-1.67;100.00;102189.88;5961272;29;20047;-71
2023/01/21 03:41:38;;;;;;;20.40;7.80;;;;;;;-1.52;100.00;102205.13;5981865;28;20049;-72
2023/01/21 03:44:34;;;;;;;18.38;7.47;;;;;;;-1.53;100.00;102193.03;5965606;28;20035;-70
2023/01/21 03:47:32;;;;;;;31.27;9.43;;;;;;;-1.64;100.00;102187.19;5966045;29;20066;-72
2023/01/21 03:50:37;;;;;;;25.38;9.43;;;;;;;-1.58;100.00;102205.28;5966134;29;20697;-72
2023/01/21 03:53:32;;;;;;;27.30;9.73;;;;;;;-1.60;100.00;102204.44;5981934;29;20043;-71
2023/01/21 03:56:28;;;;;;;20.37;7.93;;;;;;;-1.43;100.00;102210.13;5983027;29;20035;-72
2023/01/21 03:59:23;;;;;;;31.05;9.40;;;;;;;-1.35;100.00;102196.97;5982740;29;20111;-72
2023/01/21 04:02:19;;;;;;;24.27;8.57;;;;;;;-1.41;100.00;102197.94;5982075;29;20488;-71
2023/01/21 04:05:14;;;;;;;25.23;8.85;;;;;;;-1.51;100.00;102193.84;5983113;29;20046;-72
2023/01/21 04:08:10;;;;;;;19.77;8.47;;;;;;;-1.43;100.00;102197.13;5982056;29;20039;-71
2023/01/21 04:11:05;;;;;;;32.27;8.80;;;;;;;-1.42;100.00;102206.66;5982993;29;20050;-70
2023/01/21 04:14:00;;;;;;;23.00;7.13;;;;;;;-1.46;100.00;102194.59;5981394;29;20386;-71
2023/01/21 04:16:56;;;;;;;21.60;7.37;;;;;;;-1.53;100.00;102198.22;5981152;29;20078;-72
2023/01/21 04:19:51;;;;;;;21.02;7.15;;;;;;;-1.40;100.00;102220.47;5982719;29;20023;-72
2023/01/21 04:22:47;;;;;;;20.00;8.47;;;;;;;-1.43;100.00;102210.13;5981875;29;20039;-72
2023/01/21 04:25:42;;;;;;;18.30;8.13;;;;;;;-1.48;100.00;102200.72;5982445;29;20038;-72
2023/01/21 04:28:37;;;;;;;21.57;7.63;;;;;;;-1.41;100.00;102208.34;5982670;29;20279;-70
2023/01/21 04:31:32;;;;;;;18.60;7.37;;;;;;;-1.44;100.00;102212.78;5982233;29;20487;-70
2023/01/21 04:34:28;;;;;;;23.23;8.00;;;;;;;-1.41;100.00;102213.56;5981677;29;20132;-70
2023/01/21 04:37:23;;;;;;;18.93;7.67;;;;;;;-1.43;100.00;102210.13;5981953;29;20035;-71
2023/01/21 04:40:18;;;;;;;26.23;9.57;;;;;;;-1.34;100.00;102211.69;5981992;29;20690;-72
2023/01/21 04:43:14;;;;;;;21.43;8.27;;;;;;;-1.45;100.00;102211.94;5981515;29;20294;-72
2023/01/21 04:46:09;;;;;;;26.00;8.47;;;;;;;-1.41;100.00;102210.97;5981752;28;20152;-72
2023/01/21 04:49:04;;;;;;;23.10;8.10;;;;;;;-1.37;100.00;102225.63;5981918;29;20497;-71
2023/01/21 04:52:00;;;;;;;26.20;8.33;;;;;;;-1.40;100.00;102214.41;5979859;28;20471;-70
2023/01/21 04:54:55;;;;;;;26.77;8.37;;;;;;;-1.40;100.00;102217.88;5982020;29;20277;-72
2023/01/21 04:57:50;;;;;;;20.00;7.43;;;;;;;-1.34;100.00;102233.38;5981808;29;20418;-71
2023/01/21 05:00:45;;;;;;;29.00;8.87;;;;;;;-1.34;100.00;102235.97;5981572;29;20039;-71
2023/01/21 05:03:41;;;;;;;20.53;8.27;;;;;;;-1.46;100.00;102214.53;5981176;29;20039;-72
2023/01/21 05:06:36;;;;;;;27.47;8.73;;;;;;;-1.42;100.00;102227.47;5981308;29;20414;-71
2023/01/21 05:09:31;;;;;;;20.95;7.65;;;;;;;-1.42;100.00;102226.59;5981486;28;20118;-70
2023/01/21 05:12:27;;;;;;;21.07;8.53;;;;;;;-1.46;100.00;102218.00;5980546;29;20043;-72
2023/01/21 05:15:22;;;;;;;23.33;9.43;;;;;;;-1.48;100.00;102216.34;5981370;29;20133;-72
2023/01/21 05:18:17;;;;;;;27.03;9.67;;;;;;;-1.37;100.00;102241.22;5981153;29;20758;-71
2023/01/21 05:21:13;;;;;;;23.00;9.13;;;;;;;-1.38;100.00;102238.66;5981210;29;20033;-71
2023/01/21 05:24:08;;;;;;;20.70;8.65;;;;;;;-1.34;100.00;102245.50;5980770;29;20027;-72
2023/01/21 05:27:03;;;;;;;20.25;9.00;;;;;;;-1.35;100.00;102251.59;5980947;29;20035;-70
2023/01/21 05:29:59;;;;;;;23.67;7.57;;;;;;;-1.40;100.00;102245.63;5980776;29;20093;-73
2023/01/21 05:32:54;;;;;;;24.53;9.03;;;;;;;-1.38;100.00;102249.06;5980294;29;20054;-71
2023/01/21 05:35:49;;;;;;;22.60;7.67;;;;;;;-1.37;100.00;102255.97;5981005;29;20498;-69
2023/01/21 05:38:45;;;;;;;20.63;8.63;;;;;;;-1.40;100.00;102251.69;5980832;29;20039;-70
2023/01/21 05:41:40;;;;;;;24.80;7.73;;;;;;;-1.52;100.00;102240.72;5980843;29;20455;-70
2023/01/21 05:44:35;;;;;;;25.67;8.40;;;;;;;-1.46;100.00;102262.22;5978965;28;20035;-71
2023/01/21 05:47:30;;;;;;;22.40;7.60;;;;;;;-1.50;100.00;102255.38;5980632;29;20035;-71
2023/01/21 05:50:26;;;;;;;26.87;8.93;;;;;;;-1.40;100.00;102277.72;5980027;29;20050;-70
2023/01/21 05:53:21;;;;;;;31.53;10.83;;;;;;;-1.40;100.00;102280.31;5979859;29;20499;-72
2023/01/21 05:56:16;;;;;;;30.87;9.47;;;;;;;-1.37;100.00;102288.06;5963405;29;20406;-72
2023/01/21 05:59:12;;;;;;;28.33;9.60;;;;;;;-1.33;100.00;102294.88;5980019;29;20031;-71
2023/01/21 06:02:07;;;;;;;30.17;11.57;;;;;;;-1.36;100.00;102284.53;5979758;29;20050;-70
2023/01/21 06:05:02;;;;;;;28.70;10.13;;;;;;;-1.31;100.00;102303.53;5979775;28;20099;-72
2023/01/21 06:07:58;;;;;;;31.52;10.35;;;;;;;-1.38;100.00;102304.53;5980255;29;20121;-72
2023/01/21 06:10:55;;;;;;;31.67;12.00;;;;;;;-1.33;100.00;102305.28;5980165;29;20031;-70
2023/01/21 06:13:50;;;;;;;32.88;9.73;;;;;;;-1.30;100.00;102309.56;5979017;29;20031;-71
2023/01/21 06:16:45;;;;;;;23.43;9.20;;;;;;;-1.34;100.00;102307.94;5980175;29;20039;-71
2023/01/21 06:19:40;;;;;;;30.93;9.80;;;;;;;-1.29;100.00;102319.09;5979834;29;20635;-70
2023/01/21 06:22:36;;;;;;;31.70;8.93;;;;;;;-1.38;100.00;102322.75;5979523;29;20046;-71
2023/01/21 06:25:32;;;;;;;32.80;10.30;;;;;;;-1.40;100.00;102324.53;5979782;29;20038;-72
2023/01/21 06:28:28;;;;;;;31.67;9.75;;;;;;;-1.42;100.00;102330.66;5979506;29;20787;-71
2023/01/21 06:31:23;;;;;;;32.08;10.55;;;;;;;-1.42;100.00;102341.91;5979924;29;20123;-71
2023/01/21 06:34:19;;;;;;;28.83;10.30;;;;;;;-1.42;100.00;102349.72;5978753;29;20475;-72
2023/01/21 06:37:14;;;;;;;29.30;9.50;;;;;;;-1.44;100.00;102353.25;5979820;29;20298;-70
2023/01/21 06:40:10;;;;;;;26.80;8.87;;;;;;;-1.61;100.00;102330.16;5979357;29;20505;-70
2023/01/21 06:43:05;;;;;;;30.25;9.65;;;;;;;-1.51;100.00;102352.50;5978340;29;20070;-73
2023/01/21 06:46:00;;;;;;;27.97;8.97;;;;;;;-1.62;100.00;102343.16;5979623;28;20031;-72
2023/01/21 06:48:56;;;;;;;23.03;8.40;;;;;;;-1.56;100.00;102345.66;5979553;29;20560;-70
2023/01/21 06:51:51;;;;;;;31.07;9.57;;;;;;;-1.53;100.00;102354.28;5973452;29;20035;-71
2023/01/21 06:54:47;;;;;;;27.03;9.13;;;;;;;-1.63;100.00;102357.91;5974130;29;20282;-72
2023/01/21 06:57:42;;;;;;;17.60;6.10;;;;;;;-1.65;100.00;102359.69;5978855;29;20307;-71
2023/01/21 07:00:37;;;;;;;25.98;7.22;;;;;;;-1.63;100.00;102368.31;5979280;29;20039;-72
2023/01/21 07:03:33;;;;;;;26.33;7.30;;;;;;;-1.68;100.00;102357.13;5978614;29;20446;-71
2023/01/21 07:06:28;;;;;;;29.57;8.53;;;;;;;-1.61;100.00;102376.09;5979425;29;20027;-71
2023/01/21 07:09:23;;;;;;;18.03;6.80;;;;;;;-1.73;100.00;102374.56;5978736;29;20039;-71
2023/01/21 07:12:19;;;;;;;21.43;7.43;;;;;;;-1.68;100.00;102379.69;5978419;29;20038;-71
2023/01/21 07:15:14;;;;;;;23.67;7.13;;;;;;;-1.65;100.00;102392.63;5982124;28;20512;-72
2023/01/21 07:18:09;;;;;;;18.83;6.23;;;;;;;-1.82;100.00;102385.97;5986554;29;20121;-71
2023/01/21 07:21:05;;;;;;;24.73;7.40;;;;;;;-1.77;100.00;102385.94;5986489;29;20297;-70
2023/01/21 07:24:00;;;;;;;24.97;8.00;;;;;;;-1.72;100.00;102414.44;5985325;28;20110;-71
2023/01/21 07:26:55;;;;;;;21.57;6.80;;;;;;;-1.76;100.00;102403.22;5987162;28;20106;-71
2023/01/21 07:29:51;;;;;;;25.80;8.27;;;;;;;-1.65;100.00;102408.22;5986920;29;20039;-71
2023/01/21 07:32:46;;;;;;;19.77;6.67;;;;;;;-1.79;100.00;102398.06;5986096;28;20043;-71
2023/01/21 07:35:41;;;;;;;20.60;7.75;;;;;;;-1.79;100.00;102397.25;5986648;28;20038;-72
2023/01/21 07:38:37;;;;;;;19.50;6.60;;;;;;;-1.78;100.00;102402.41;5987429;28;20034;-72
2023/01/21 07:41:32;;;;;;;19.67;7.70;;;;;;;-1.76;100.00;102398.03;5999180;28;20030;-70
2023/01/21 07:44:27;;;;;;;21.07;7.17;;;;;;;-1.77;100.00;102398.94;5985239;28;20043;-71
2023/01/21 07:47:23;;;;;;;24.07;7.83;;;;;;;-1.61;100.00;102422.91;5986132;29;20031;-72
2023/01/21 07:50:18;;;;;;;20.93;7.00;;;;;;;-1.65;100.00;102419.50;5986125;28;20390;-71
2023/01/21 07:53:13;;;;;;;24.38;8.27;;;;;;;-1.57;100.00;102435.81;5975419;29;20066;-71
2023/01/21 07:56:09;;;;;;;17.67;5.93;;;;;;;-1.54;100.00;102435.78;5985679;28;20411;-71
2023/01/21 07:59:05;;;;;;;21.25;7.32;;;;;;;-1.44;100.00;102441.69;5985995;28;20034;-71
2023/01/21 08:02:00;;;;;;;24.27;7.55;;;;;;;-1.47;100.00;102431.31;5984942;29;20035;-71
2023/01/21 08:04:56;;;;;;;23.77;8.25;;;;;;;-1.52;100.00;102433.16;5985786;28;20032;-71
2023/01/21 08:07:51;;;;;;;21.63;6.57;;;;;;;-1.51;100.00;102433.13;5985857;28;20037;-71
2023/01/21 08:10:53;;;;;;;18.27;6.47;;;;;;;-1.38;100.00;102447.63;5985284;28;20047;-72
2023/01/21 08:13:49;;;;;;;20.02;6.55;;;;;;;-1.39;100.00;102440.72;5995816;28;20050;-71
2023/01/21 08:16:44;;;;;;;24.45;8.73;;;;;;;-1.43;100.00;102454.66;5980319;29;20504;-69
2023/01/21 08:19:40;;;;;;;20.27;6.63;;;;;;;-1.47;100.00;102442.56;5984874;28;20035;-70
2023/01/21 08:22:35;;;;;;;30.23;7.60;;;;;;;-1.43;100.00;102457.25;5985162;28;20118;-72
2023/01/21 08:25:30;;;;;;;22.55;8.63;;;;;;;-1.45;100.00;102459.03;5986103;28;20042;-71
2023/01/21 08:28:26;;;;;;;24.13;7.97;;;;;;;-1.44;100.00;102439.91;5984088;28;20490;-71
2023/01/21 08:31:21;;;;;;;25.47;7.83;;;;;;;-1.34;100.00;102464.91;5973309;29;20035;-71
2023/01/21 08:34:17;;;;;;;23.48;7.55;;;;;;;-1.35;100.00;102442.34;5981264;29;20054;-72
2023/01/21 08:37:12;;;;;;;25.15;7.68;;;;;;;-1.38;100.00;102442.41;5981533;29;20027;-71
2023/01/21 08:40:08;;;;;;;25.17;7.63;;;;;;;-1.22;100.00;102453.38;5982137;29;20031;-73
2023/01/21 08:43:06;;;;;;;26.70;8.00;;;;;;;-1.22;100.00;102459.44;5981405;29;20051;-73
2023/01/21 08:46:01;;;;;;;22.13;7.97;;;;;;;-1.15;100.00;102454.13;5981447;28;20041;-72
2023/01/21 08:48:56;;;;;;;20.63;7.38;;;;;;;-1.17;100.00;102450.72;5981925;29;20043;-72
2023/01/21 08:51:52;;;;;;;20.73;7.80;;;;;;;-1.28;100.00;102435.31;5939922;29;20625;-73
2023/01/21 08:54:47;;;;;;;22.43;7.30;;;;;;;-1.20;100.00;102449.03;5981406;29;20406;-72
2023/01/21 08:57:42;;;;;;;23.05;7.10;;;;;;;-1.16;100.00;102455.00;5981137;29;20039;-71
2023/01/21 09:00:38;;;;;;;23.27;7.53;;;;;;;-1.14;100.00;102455.88;5981185;29;20031;-73
2023/01/21 09:03:33;;;;;;;25.98;8.57;;;;;;;-1.10;100.00;102462.72;5980745;29;20504;-72
2023/01/21 09:06:29;;;;;;;24.90;7.60;;;;;;;-1.09;100.00;102459.22;5981165;29;20032;-71
2023/01/21 09:09:24;;;;;;;26.65;9.20;;;;;;;-1.11;100.00;102445.41;5981154;29;20031;-70
2023/01/21 09:12:19;;;;;;;25.40;8.77;;;;;;;-1.07;100.00;102450.50;5980124;29;20027;-73
2023/01/21 09:15:15;;;;;;;26.57;9.37;;;;;;;-1.05;100.00;102456.53;5981357;29;20273;-72
2023/01/21 09:18:10;;;;;;;23.97;8.43;;;;;;;-0.98;100.00;102458.13;5963569;29;20299;-72
2023/01/21 09:21:06;;;;;;;27.48;7.18;;;;;;;-0.97;100.00;102466.78;5980347;29;20372;-72
2023/01/21 09:24:02;;;;;;;23.92;8.75;;;;;;;-1.05;100.00;102455.66;5980083;29;20122;-70
2023/01/21 09:26:57;;;;;;;23.33;8.57;;;;;;;-0.97;100.00;102461.59;5980381;29;20035;-73
2023/01/21 09:29:53;;;;;;;33.58;10.48;;;;;;;-1.04;100.00;102457.41;5981144;29;20042;-72
2023/01/21 09:32:48;;;;;;;25.42;9.70;;;;;;;-0.99;100.00;102463.38;5980322;29;20027;-71
2023/01/21 09:35:44;;;;;;;26.47;9.70;;;;;;;-1.02;100.00;102456.47;5982084;28;20644;-71
2023/01/21 09:38:43;;;;;;;30.27;9.57;;;;;;;-0.98;100.00;102460.72;5991784;28;20028;-70
2023/01/21 09:41:49;;;;;;;25.40;9.18;;;;;;;-0.90;100.00;102466.66;5980354;29;20178;-71
2023/01/21 09:44:47;;;;;;;21.77;7.85;;;;;;;-0.82;100.00;102474.31;5980501;28;20031;-71
2023/01/21 09:47:44;;;;;;;27.48;10.18;;;;;;;-0.77;100.00;102483.75;5963084;29;20533;-71
2023/01/21 09:50:40;;;;;;;33.25;10.73;;;;;;;-0.76;100.00;102472.44;5963333;29;20031;-73
2023/01/21 09:53:42;;;;;;;25.20;9.82;;;;;;;-0.67;100.00;102484.41;5969575;29;20031;-71
2023/01/21 09:56:53;;;;;;;29.15;9.13;;;;;;;-0.61;100.00;102474.75;5962639;29;20043;-71
2023/01/21 09:59:57;;;;;;;27.40;9.02;;;;;;;-0.58;100.00;102483.38;5979979;29;20059;-72
2023/01/21 10:02:59;;;;;;;28.52;9.13;;;;;;;-0.52;100.00;102484.13;5979649;29;20035;-70
2023/01/21 10:05:59;;;;;;;24.70;9.27;;;;;;;-0.40;100.00;102483.84;5980344;29;20046;-70
2023/01/21 10:09:17;;;;;;;24.92;8.55;;;;;;;-0.22;100.00;102495.63;5980239;29;20037;-72
2023/01/21 10:12:18;;;;;;;23.95;9.15;;;;;;;-0.21;100.00;102498.19;5979484;29;20031;-73
2023/01/21 10:15:40;;;;;;;27.67;9.15;;;;;;;-0.25;100.00;102495.69;5980140;29;20039;-73
2023/01/21 10:18:37;;;;;;;26.35;9.23;;;;;;;-0.31;100.00;102482.78;5963209;29;20046;-71
2023/01/21 10:21:39;;;;;;;23.00;7.53;;;;;;;-0.29;100.00;102494.88;5979541;29;20047;-72
2023/01/21 10:24:37;;;;;;;25.25;9.50;;;;;;;-0.14;100.00;102485.88;5961454;29;20035;-71
2023/01/21 10:27:35;;;;;;;27.65;10.27;;;;;;;-0.22;100.00;102500.84;5962690;29;20043;-70
2023/01/21 10:30:44;;;;;;;27.58;8.45;;;;;;;-0.24;100.00;102503.47;5980141;29;20042;-73
2023/01/21 10:33:39;;;;;;;22.25;8.32;;;;;;;-0.29;100.00;102473.19;5962046;29;20031;-71
2023/01/21 10:37:02;;;;;;;20.37;9.07;;;;;;;-0.15;100.00;102479.81;5970123;29;20090;-72
2023/01/21 10:40:41;;;;;;;20.75;8.18;;;;;;;-0.02;100.00;102489.06;5962584;29;20031;-72
2023/01/21 10:43:46;;;;;;;41.22;15.35;;;;;;;0.16;100.00;102492.13;5964464;29;20047;-73
2023/01/21 10:46:47;;;;;;;25.60;8.18;;;;;;;0.24;100.00;102485.00;5962293;29;20031;-75
2023/01/21 10:49:58;;;;;;;;;;;;;;;0.39;100.00;102477.63;5979150;28;20028;-74
2023/01/21 10:53:00;;;;;;;30.45;13.15;;;;;;;0.28;100.00;102469.22;5978440;29;19929;-74
2023/01/21 10:56:21;;;;;;;59.53;27.15;;;;;;;0.24;100.00;102469.34;5962239;29;20043;-73
2023/01/21 10:59:23;;;;;;;29.20;8.85;;;;;;;0.39;100.00;102469.81;5955544;29;20055;-75
2023/01/21 11:02:28;;;;;;;20.35;7.95;;;;;;;0.50;100.00;102485.19;5978559;29;20118;-73
2023/01/21 11:05:24;;;;;;;24.63;11.07;;;;;;;0.45;100.00;102477.50;5979426;29;20027;-73
2023/01/21 11:08:21;;;;;;;33.00;14.73;;;;;;;0.48;100.00;102464.38;5962140;29;20051;-71
2023/01/21 11:11:26;;;;;;;33.92;15.27;;;;;;;0.53;98.15;102475.53;5961524;29;20057;-74
2023/01/21 11:14:24;;;;;;;39.97;21.35;;;;;;;0.55;98.17;102471.13;5986628;28;20039;-73
2023/01/21 11:17:34;;;;;;;33.45;15.15;;;;;;;0.70;96.97;102477.72;5984071;28;20435;-71
2023/01/21 11:20:40;;;;;;;32.35;16.10;;;;;;;0.61;96.41;102467.50;5977995;29;20089;-74
2023/01/21 11:23:38;;;;;;;23.75;9.70;;;;;;;0.75;96.82;102473.25;5961159;29;20035;-73
2023/01/21 11:26:34;;;;;;;22.27;7.85;;;;;;;0.75;97.19;102482.81;5978741;29;20511;-71
2023/01/21 11:29:38;;;;;;;21.98;8.15;;;;;;;0.77;96.82;102483.63;5979113;29;20057;-72
2023/01/21 11:32:34;;;;;;;23.58;9.02;;;;;;;0.92;96.74;102468.44;5978085;28;20403;-72
2023/01/21 11:35:29;;;;;;;19.57;6.87;;;;;;;1.03;95.65;102461.13;5982714;28;20026;-72
2023/01/21 11:38:28;;;;;;;19.02;8.10;;;;;;;1.27;94.57;102479.66;5984392;28;20298;-72
2023/01/21 11:41:23;;;;;;;19.40;8.18;;;;;;;1.11;94.10;102464.38;5978663;29;20035;-73
2023/01/21 11:44:20;;;;;;;20.52;6.63;;;;;;;1.11;93.91;102468.78;5977782;29;20099;-73
2023/01/21 11:47:48;;;;;;;22.88;7.93;;;;;;;1.13;93.36;102466.97;5977612;28;20539;-73
2023/01/21 11:50:44;;;;;;;20.33;7.35;;;;;;;1.07;92.31;102461.91;5949966;29;20050;-73
2023/01/21 11:53:40;;;;;;;17.50;8.40;;;;;;;1.17;93.06;102445.94;5968644;28;20039;-71
2023/01/21 11:56:35;;;;;;;17.60;6.97;;;;;;;1.49;92.54;102471.16;5983872;28;20035;-71
2023/01/21 11:59:37;;;;;;;23.83;6.80;;;;;;;1.51;91.32;102464.13;5960670;29;20031;-71
2023/01/21 12:02:38;;;;;;;20.45;7.50;;;;;;;1.58;90.87;102464.78;5974453;28;20118;-72
2023/01/21 12:05:39;;;;;;;18.90;6.32;;;;;;;1.59;91.42;102461.28;5965684;29;20155;-73
2023/01/21 12:08:36;;;;;;;19.58;7.20;;;;;;;1.51;91.04;102447.56;5979147;29;20038;-73
2023/01/21 12:11:32;;;;;;;21.33;6.45;;;;;;;1.42;90.73;102450.44;5965327;29;20150;-73
2023/01/21 12:14:43;;;;;;;19.33;7.13;;;;;;;1.36;91.35;102448.88;5981331;29;20048;-74
2023/01/21 12:18:04;;;;;;;24.00;8.15;;;;;;;1.41;91.43;102462.69;5982807;29;20031;-72
2023/01/21 12:21:10;;;;;;;24.33;7.35;;;;;;;1.27;91.17;102451.78;5955174;29;20205;-72
2023/01/21 12:24:36;;;;;;;20.25;6.80;;;;;;;1.20;91.83;102455.44;5981939;29;20031;-72
2023/01/21 12:27:44;;;;;;;18.30;6.93;;;;;;;1.18;92.09;102450.28;5964533;29;20047;-71
2023/01/21 12:31:03;;;;;;;21.40;9.70;;;;;;;1.24;92.69;102466.66;5965040;29;20043;-73
2023/01/21 12:34:04;;;;;;;19.00;6.78;;;;;;;1.16;92.18;102452.06;5971133;29;20043;-71
2023/01/21 12:37:08;;;;;;;19.52;6.57;;;;;;;1.22;92.87;102443.22;5982413;29;20043;-71
2023/01/21 12:40:15;;;;;;;27.60;8.93;;;;;;;1.35;92.17;102451.53;5954073;29;20062;-73
2023/01/21 12:43:19;;;;;;;19.27;7.18;;;;;;;1.28;92.37;102432.56;5953839;29;20097;-72
2023/01/21 12:46:26;;;;;;;18.90;6.10;;;;;;;1.46;91.93;102439.00;5980199;28;20130;-72
2023/01/21 12:49:41;;;;;;;18.13;6.00;;;;;;;1.55;92.15;102430.91;5964739;29;20035;-71
2023/01/21 12:52:38;;;;;;;;;;;;;;;1.71;91.46;102434.78;5962246;29;20407;-73
2023/01/21 12:56:08;;;;;;;22.17;6.05;;;;;;;1.69;91.12;102441.78;5964878;29;20322;-72
2023/01/21 12:59:06;;;;;;;19.17;6.03;;;;;;;1.82;92.01;102427.44;5965171;29;20042;-72
2023/01/21 13:02:16;;;;;;;18.85;7.38;;;;;;;1.81;90.79;102428.34;5980692;29;20039;-72
2023/01/21 13:05:16;;;;;;;20.33;6.53;;;;;;;1.82;90.49;102411.75;5965020;29;20591;-71
2023/01/21 13:08:43;;;;;;;19.40;6.50;;;;;;;1.81;90.84;102412.66;5964606;29;20031;-71
2023/01/21 13:11:43;;;;;;;16.45;6.70;;;;;;;1.90;92.04;102424.59;5959973;29;20478;-71
2023/01/21 13:14:42;;;;;;;18.33;6.82;;;;;;;1.76;92.00;102409.31;5962625;29;20039;-73
2023/01/21 13:17:39;;;;;;;19.88;7.68;;;;;;;1.71;92.47;102424.31;5981402;29;20121;-73
2023/01/21 13:20:37;;;;;;;18.05;6.32;;;;;;;1.43;92.63;102376.38;5980622;29;20039;-72
2023/01/21 13:23:44;;;;;;;21.52;7.47;;;;;;;1.64;92.79;102428.00;5963765;29;20043;-71
2023/01/21 13:26:49;;;;;;;19.83;7.05;;;;;;;1.37;92.23;102414.00;5963792;29;20035;-72
2023/01/21 13:29:50;;;;;;;22.38;7.22;;;;;;;1.35;93.48;102415.81;5964016;29;20039;-71
2023/01/21 13:32:48;;;;;;;15.18;6.45;;;;;;;1.56;93.76;102441.31;5979657;29;20042;-70
2023/01/21 13:35:52;;;;;;;26.92;10.20;;;;;;;1.48;94.25;102426.75;5963362;29;20128;-72
2023/01/21 13:38:50;;;;;;;25.73;9.40;;;;;;;1.56;93.54;102438.69;5980980;29;20117;-72
2023/01/21 13:42:10;;;;;;;47.50;18.40;;;;;;;1.60;93.04;102436.84;5980774;29;20042;-73
2023/01/21 13:45:13;;;;;;;22.73;8.15;;;;;;;1.58;93.23;102428.19;5980303;28;20099;-72